Hurghada, Egyiptom

2014 Október 22 02:12 PM (EET időzóna) (GMT +0200)
Hurghada International | Change Station
CLOSE
Current Station
Repülőtér
Location: Hurghada,
Elevation: 46 ft
Közeli meteorológiai állomások

Elev 46 ft 27.18 °N, 33.80 °E | Updated 1 hour ago

Clear
Derült
91 °F
Hőérzet 90 °F
N
4
Szél: változó Szél: from északkeleti

Ma
High -- | Low -- °F
--% Csapadék valószínű
Tegnapi
High -- | Low -- °F
Precip. -- hvlyk.
5:48 AM 5:10 PM
Fogyó holdsarló, 2% visible
Légnyomás 29.92 hvlyk.
Látótávolság -9999.0 mérföld
Felhők
Hőskála 90 °F
Harmatpont 57 °F
Páratartalom 31%
Rainfall 0.00 hvlyk.
Hóréteg vastagsága Not available.
UV Not available.
Pollen Not available.
A levegő minősége Not available.
Flu Activity Not available.
METAR HEGN 221100Z 04003KT CAVOK 33/14 Q1013 NOSIG

More Conditions Fewer Conditions

Légnyomás 29.92 hvlyk.
Látótávolság -9999.0 mérföld
Felhők
Hőskála 90 °F
Harmatpont 57 °F
Páratartalom 31%
Rainfall 0.00 hvlyk.
Hóréteg vastagsága Not available.
UV Not available.
Pollen Not available.
A levegő minősége Not available.
Flu Activity Not available.
METAR HEGN 221100Z 04003KT CAVOK 33/14 Q1013 NOSIG

More Conditions Fewer Conditions

10-Day Weather Forecast

Almanac

Csillagászat

Oct. 22, 2014 Kel Nyugszik
Tényleges idő 5:48 AM EET 5:10 PM EET
Civil alkony 5:25 AM EET 5:33 PM EET
Tengerészeti alkony 4:57 AM EET 6:01 PM EET
Csillagászati alkony 4:30 AM EET 6:28 PM EET
Hold 4:18 AM EET 4:19 PM EET
Látható fény időtartama 12h 08m
A nap hossza
11h 21m
Tomorrow will be 1m 29s shorter.
Fogyó holdsarló, 2% of the Moon is Illuminated
Ma
Fogyó holdsarló
Oct 23
Új
Oct 30
első negyed
Nov 6
telihold
Nov 14
utolsó negyed

Yesterday's Extremes

Country Highs Country Lows

Community

WunderPhotos

Upload Photos

1,763,906 Fotók feltöltve.

Nearby

A levegő minősége

Not available.

Hóréteg vastagsága

Not available.

Earthquake Activity

város Distance Mag. Time & Date
No recent earthquake activity has been reported nearby.
Minimum magnitude displayed is 2.5.

Coastal Water Temperatures

Hely Hőmérséklet
No Stations Reporting

Közeli meteorológiai állomások